createdAt,value
2018-06-24T00:02:02.808Z,99.90
2018-06-24T00:04:07.671Z,99.90
2018-06-24T00:06:12.553Z,99.90
2018-06-24T00:08:17.304Z,99.90
2018-06-24T00:10:22.051Z,99.90
2018-06-24T00:12:26.907Z,99.90
2018-06-24T00:14:31.660Z,99.90
2018-06-24T00:16:36.571Z,99.90
2018-06-24T00:18:41.365Z,99.90
2018-06-24T00:20:46.161Z,99.90
2018-06-24T00:22:50.927Z,99.80
2018-06-24T00:24:55.794Z,99.70
2018-06-24T00:27:00.578Z,99.80
2018-06-24T00:29:05.325Z,99.90
2018-06-24T00:31:10.185Z,99.90
2018-06-24T00:33:14.961Z,99.90
2018-06-24T00:35:19.764Z,99.90
2018-06-24T00:37:24.659Z,99.90
2018-06-24T00:39:29.527Z,99.90
2018-06-24T00:41:34.259Z,99.90
2018-06-24T00:43:39.039Z,99.90
2018-06-24T00:47:48.399Z,99.90
2018-06-24T00:49:53.171Z,99.90
2018-06-24T00:51:57.872Z,99.90
2018-06-24T00:54:02.656Z,99.90
2018-06-24T00:56:07.331Z,99.90
2018-06-24T00:58:12.058Z,99.90
2018-06-24T01:00:17.848Z,99.90
2018-06-24T01:02:22.789Z,99.90
2018-06-24T01:04:27.484Z,99.90
2018-06-24T01:06:32.192Z,99.90
2018-06-24T01:08:36.945Z,99.90
2018-06-24T01:10:41.748Z,99.90
2018-06-24T01:12:46.538Z,99.90
2018-06-24T01:14:51.374Z,99.90
2018-06-24T01:16:56.247Z,99.90
2018-06-24T01:19:00.983Z,99.90
2018-06-24T01:23:10.319Z,99.90
2018-06-24T01:25:15.047Z,99.90
2018-06-24T01:27:19.935Z,99.90
2018-06-24T01:29:24.640Z,99.90
2018-06-24T01:31:29.413Z,99.90
2018-06-24T01:33:34.188Z,99.90
2018-06-24T01:35:38.937Z,99.90
2018-06-24T01:37:43.660Z,99.90
2018-06-24T01:39:48.479Z,99.90
2018-06-24T01:41:53.174Z,99.90
2018-06-24T01:43:57.904Z,99.90
2018-06-24T01:46:02.688Z,99.90
2018-06-24T01:48:07.395Z,99.90
2018-06-24T01:50:12.125Z,99.90
2018-06-24T01:52:16.816Z,99.90
2018-06-24T01:54:21.582Z,99.90
2018-06-24T01:56:26.286Z,99.90
2018-06-24T01:58:31.066Z,99.90
2018-06-24T02:00:35.899Z,99.90
2018-06-24T02:02:40.584Z,99.90
2018-06-24T02:04:45.295Z,99.90
2018-06-24T02:06:49.940Z,99.90
2018-06-24T02:08:54.641Z,99.90
2018-06-24T02:10:59.366Z,99.90
2018-06-24T02:13:04.191Z,99.90
2018-06-24T02:15:08.943Z,99.90
2018-06-24T02:17:13.649Z,99.90
2018-06-24T02:19:18.399Z,99.90
2018-06-24T02:21:23.138Z,99.90
2018-06-24T02:23:27.913Z,99.90
2018-06-24T02:25:32.539Z,99.90
2018-06-24T02:27:37.472Z,99.90
2018-06-24T02:29:42.277Z,99.90
2018-06-24T02:31:46.917Z,99.90
2018-06-24T02:33:51.573Z,99.90
2018-06-24T02:35:56.323Z,99.90
2018-06-24T02:38:01.161Z,99.90
2018-06-24T02:40:05.899Z,99.90
2018-06-24T02:42:10.764Z,99.90
2018-06-24T02:44:15.381Z,99.90
2018-06-24T02:46:20.209Z,99.90
2018-06-24T02:48:24.981Z,99.90
2018-06-24T02:50:29.759Z,99.90
2018-06-24T02:52:34.755Z,99.90
2018-06-24T02:54:39.389Z,99.90
2018-06-24T02:56:44.088Z,99.90
2018-06-24T02:58:48.762Z,99.90
2018-06-24T03:00:53.557Z,99.90
2018-06-24T03:02:58.295Z,99.90
2018-06-24T03:05:03.007Z,99.90
2018-06-24T03:07:07.774Z,99.90
2018-06-24T03:09:12.834Z,99.90
2018-06-24T03:11:17.517Z,99.90
2018-06-24T03:13:22.403Z,99.90
2018-06-24T03:15:27.002Z,99.90
2018-06-24T03:17:32.071Z,99.90
2018-06-24T03:19:36.749Z,99.90
2018-06-24T03:21:41.482Z,99.90
2018-06-24T03:23:46.189Z,99.90
2018-06-24T03:25:50.931Z,99.90
2018-06-24T03:27:55.671Z,99.90
2018-06-24T03:30:00.387Z,99.90
2018-06-24T03:32:05.121Z,99.90
2018-06-24T03:34:09.783Z,99.90
2018-06-24T03:36:14.448Z,99.90
2018-06-24T03:38:19.109Z,99.90
2018-06-24T03:40:23.818Z,99.90
2018-06-24T03:42:28.467Z,99.90
2018-06-24T03:44:33.208Z,99.90
2018-06-24T03:46:38.048Z,99.90
2018-06-24T03:48:42.719Z,99.90
2018-06-24T03:50:47.442Z,99.90
2018-06-24T03:52:52.095Z,99.90
2018-06-24T03:54:56.821Z,99.90
2018-06-24T03:57:01.678Z,99.90
2018-06-24T03:59:06.505Z,99.90
2018-06-24T04:01:11.281Z,99.90
2018-06-24T04:03:15.904Z,99.90
2018-06-24T04:05:20.527Z,99.90
2018-06-24T04:07:25.200Z,99.90
2018-06-24T04:09:29.871Z,99.90
2018-06-24T04:11:34.585Z,99.90
2018-06-24T04:13:39.289Z,99.90
2018-06-24T04:15:43.950Z,99.90
2018-06-24T04:17:48.698Z,99.90
2018-06-24T04:19:53.286Z,99.90
2018-06-24T04:21:57.942Z,99.90
2018-06-24T04:24:02.529Z,99.90
2018-06-24T04:26:08.318Z,99.90
2018-06-24T04:28:13.074Z,99.90
2018-06-24T04:30:17.759Z,99.90
2018-06-24T04:32:22.358Z,99.90
2018-06-24T04:34:27.000Z,99.90
2018-06-24T04:36:31.666Z,99.90
2018-06-24T04:38:36.424Z,99.90
2018-06-24T04:40:41.124Z,99.90
2018-06-24T04:42:45.848Z,99.90
2018-06-24T04:44:50.489Z,99.90
2018-06-24T04:46:55.403Z,99.90
2018-06-24T04:49:00.218Z,99.90
2018-06-24T04:51:05.230Z,99.90
2018-06-24T04:53:09.990Z,99.90
2018-06-24T04:55:14.607Z,99.90
2018-06-24T04:57:19.221Z,99.90
2018-06-24T04:59:24.053Z,99.90
2018-06-24T05:01:28.681Z,99.90
2018-06-24T05:03:33.272Z,99.90
2018-06-24T05:05:38.084Z,99.90
2018-06-24T05:07:42.751Z,99.90
2018-06-24T05:09:47.380Z,99.90
2018-06-24T05:11:52.085Z,99.90
2018-06-24T05:13:56.811Z,99.90
2018-06-24T05:16:01.434Z,99.90
2018-06-24T05:18:06.779Z,99.90
2018-06-24T05:20:11.404Z,99.90
2018-06-24T05:22:16.117Z,99.90
2018-06-24T05:24:20.806Z,99.90
2018-06-24T05:26:25.833Z,99.90
2018-06-24T05:28:30.522Z,99.90
2018-06-24T05:30:35.185Z,99.90
2018-06-24T05:32:40.123Z,99.90
2018-06-24T05:34:44.926Z,99.90
2018-06-24T05:36:49.860Z,99.90
2018-06-24T05:38:54.547Z,99.90
2018-06-24T05:40:59.178Z,99.90
2018-06-24T05:43:03.827Z,99.90
2018-06-24T05:45:08.659Z,99.90
2018-06-24T05:47:13.543Z,99.90
2018-06-24T05:49:18.296Z,99.90
2018-06-24T05:51:23.240Z,99.90
2018-06-24T05:53:28.479Z,99.90
2018-06-24T05:55:33.533Z,99.90
2018-06-24T05:57:38.489Z,99.90
2018-06-24T05:59:43.324Z,99.90
2018-06-24T06:01:48.122Z,99.90
2018-06-24T06:03:53.770Z,99.90
2018-06-24T06:05:58.596Z,99.90
2018-06-24T06:08:03.339Z,99.90
2018-06-24T06:10:08.360Z,99.90
2018-06-24T06:12:13.282Z,99.90
2018-06-24T06:14:18.286Z,99.90
2018-06-24T06:16:23.033Z,99.90
2018-06-24T06:18:27.729Z,99.90
2018-06-24T06:20:32.445Z,99.90
2018-06-24T06:22:37.224Z,99.90
2018-06-24T06:24:41.928Z,99.90
2018-06-24T06:26:46.615Z,99.90
2018-06-24T06:28:51.285Z,99.70
2018-06-24T06:30:56.291Z,99.50
2018-06-24T06:33:01.010Z,98.70
2018-06-24T06:35:06.395Z,98.50
2018-06-24T06:37:11.399Z,97.70
2018-06-24T06:39:16.146Z,98.00
2018-06-24T06:41:21.059Z,97.50
2018-06-24T06:43:25.810Z,97.70
2018-06-24T06:45:30.815Z,97.70
2018-06-24T06:47:35.662Z,97.40
2018-06-24T06:49:40.963Z,96.90
2018-06-24T06:51:45.860Z,97.00
2018-06-24T06:53:50.655Z,96.90
2018-06-24T06:55:55.451Z,97.10
2018-06-24T06:58:00.244Z,96.90
2018-06-24T07:00:05.978Z,96.60
2018-06-24T07:02:11.115Z,96.80
2018-06-24T07:04:15.933Z,97.20
2018-06-24T07:06:22.768Z,96.80
2018-06-24T07:08:27.486Z,96.30
2018-06-24T07:10:32.227Z,96.60
2018-06-24T07:12:37.066Z,96.50
2018-06-24T07:14:41.894Z,96.80
2018-06-24T07:16:46.669Z,96.50
2018-06-24T07:18:51.427Z,96.80
2018-06-24T07:20:56.554Z,97.10
2018-06-24T07:23:01.455Z,97.00
2018-06-24T07:25:06.416Z,96.90
2018-06-24T07:27:11.238Z,96.90
2018-06-24T07:29:15.995Z,97.10
2018-06-24T07:31:20.803Z,96.90
2018-06-24T07:33:25.587Z,97.00
2018-06-24T07:35:30.428Z,96.60
2018-06-24T07:37:35.207Z,97.30
2018-06-24T07:39:39.940Z,97.00
2018-06-24T07:41:44.778Z,96.70
2018-06-24T07:43:49.560Z,96.60
2018-06-24T07:45:54.487Z,96.40
2018-06-24T07:47:59.365Z,96.70
2018-06-24T07:50:04.435Z,96.10
2018-06-24T07:52:09.315Z,96.10
2018-06-24T07:54:14.266Z,96.30
2018-06-24T07:56:19.102Z,96.30
2018-06-24T08:00:32.943Z,96.30
2018-06-24T08:02:37.710Z,96.10
2018-06-24T08:04:42.700Z,96.40
2018-06-24T08:06:47.436Z,96.20
2018-06-24T08:08:52.818Z,96.10
2018-06-24T08:10:57.756Z,95.40
2018-06-24T08:13:02.732Z,95.20
2018-06-24T08:15:07.567Z,95.10
2018-06-24T08:17:12.474Z,94.80
2018-06-24T08:19:17.375Z,94.50
2018-06-24T08:21:22.200Z,94.50
2018-06-24T08:23:26.903Z,94.80
2018-06-24T08:25:31.765Z,93.60
2018-06-24T08:27:36.580Z,92.90
2018-06-24T08:29:41.338Z,92.80
2018-06-24T08:31:46.157Z,92.50
2018-06-24T08:33:50.973Z,92.90
2018-06-24T08:35:56.049Z,92.20
2018-06-24T08:38:00.914Z,92.50
2018-06-24T08:40:05.808Z,92.50
2018-06-24T08:42:10.887Z,92.80
2018-06-24T08:44:15.608Z,91.80
2018-06-24T08:46:20.376Z,91.80
2018-06-24T08:48:26.007Z,91.90
2018-06-24T08:50:30.855Z,92.00
2018-06-24T08:52:35.992Z,92.30
2018-06-24T08:54:40.720Z,92.40
2018-06-24T08:56:45.628Z,91.80
2018-06-24T08:58:50.444Z,92.10
2018-06-24T09:00:55.559Z,92.00
2018-06-24T09:03:00.885Z,91.80
2018-06-24T09:05:05.663Z,91.40
2018-06-24T09:07:10.452Z,91.30
2018-06-24T09:09:15.157Z,91.00
2018-06-24T09:11:20.014Z,91.40
2018-06-24T09:13:24.802Z,91.80
2018-06-24T09:15:29.697Z,91.10
2018-06-24T09:17:34.495Z,91.10
2018-06-24T09:19:39.250Z,91.30
2018-06-24T09:21:44.074Z,91.30
2018-06-24T09:23:48.842Z,91.80
2018-06-24T09:25:53.641Z,91.40
2018-06-24T09:27:58.369Z,90.70
2018-06-24T09:30:03.147Z,90.70
2018-06-24T09:32:07.888Z,90.60
2018-06-24T09:34:15.266Z,90.50
2018-06-24T09:36:22.013Z,90.50
2018-06-24T09:38:26.843Z,91.20
2018-06-24T09:40:31.840Z,91.60
2018-06-24T09:42:36.600Z,91.70
2018-06-24T09:44:41.366Z,91.10
2018-06-24T09:46:46.166Z,90.90
2018-06-24T09:48:50.992Z,90.90
2018-06-24T09:50:55.722Z,90.60
2018-06-24T09:53:00.453Z,91.00
2018-06-24T09:55:05.362Z,91.00
2018-06-24T09:57:10.192Z,90.40
2018-06-24T09:59:15.272Z,90.80
2018-06-24T10:01:20.220Z,90.20
2018-06-24T10:03:25.219Z,90.40
2018-06-24T10:05:30.004Z,90.60
2018-06-24T10:07:34.963Z,90.20
2018-06-24T10:09:39.844Z,90.40
2018-06-24T10:11:44.649Z,89.30
2018-06-24T10:13:49.501Z,88.90
2018-06-24T10:15:54.781Z,88.40
2018-06-24T10:17:59.618Z,86.60
2018-06-24T10:20:04.771Z,86.00
2018-06-24T10:22:09.496Z,88.00
2018-06-24T10:24:14.295Z,84.60
2018-06-24T10:26:22.242Z,82.20
2018-06-24T10:28:28.496Z,83.30
2018-06-24T10:30:33.476Z,84.80
2018-06-24T10:32:38.307Z,81.10
2018-06-24T10:34:43.102Z,80.20
2018-06-24T10:36:47.948Z,79.20
2018-06-24T10:38:52.830Z,78.10
2018-06-24T10:40:57.623Z,77.20
2018-06-24T10:43:02.613Z,73.20
2018-06-24T10:45:07.511Z,72.20
2018-06-24T10:47:12.433Z,73.30
2018-06-24T10:49:17.467Z,76.20
2018-06-24T10:51:22.295Z,75.80
2018-06-24T10:53:27.080Z,77.90
2018-06-24T10:55:32.228Z,76.10
2018-06-24T10:57:37.203Z,73.30
2018-06-24T10:59:42.063Z,72.40
2018-06-24T11:03:45.159Z,72.80
2018-06-24T11:05:49.936Z,70.80
2018-06-24T11:07:55.008Z,71.10
2018-06-24T11:09:59.863Z,68.60
2018-06-24T11:12:04.642Z,69.70
2018-06-24T11:14:09.533Z,69.20
2018-06-24T11:16:14.454Z,68.90
2018-06-24T11:18:19.290Z,68.50
2018-06-24T11:20:24.080Z,69.10
2018-06-24T11:22:28.906Z,69.00
2018-06-24T11:24:33.800Z,67.70
2018-06-24T11:26:39.010Z,66.90
2018-06-24T11:28:43.857Z,65.30
2018-06-24T11:30:48.924Z,65.70
2018-06-24T11:32:54.029Z,66.80
2018-06-24T11:34:58.921Z,67.30
2018-06-24T11:37:03.909Z,66.50
2018-06-24T11:39:10.612Z,66.10
2018-06-24T11:41:15.489Z,66.00
2018-06-24T11:43:20.369Z,66.10
2018-06-24T11:45:25.382Z,63.20
2018-06-24T11:47:30.337Z,64.90
2018-06-24T11:49:35.438Z,64.00
2018-06-24T11:51:40.322Z,63.00
2018-06-24T11:53:45.259Z,65.40
2018-06-24T11:55:51.628Z,67.10
2018-06-24T11:57:56.599Z,68.00
2018-06-24T12:00:01.438Z,70.80
2018-06-24T12:02:06.372Z,71.50
2018-06-24T12:04:11.338Z,71.20
2018-06-24T12:06:16.112Z,70.90
2018-06-24T12:08:21.016Z,69.70
2018-06-24T12:10:25.954Z,69.30
2018-06-24T12:12:30.862Z,67.70
2018-06-24T12:14:35.929Z,67.10
2018-06-24T12:16:40.795Z,67.80
2018-06-24T12:18:45.614Z,65.70
2018-06-24T12:20:50.508Z,63.30
2018-06-24T12:22:55.371Z,64.70
2018-06-24T12:25:00.166Z,67.30
2018-06-24T12:27:05.221Z,67.50
2018-06-24T12:29:10.199Z,67.90
2018-06-24T12:31:15.362Z,64.70
2018-06-24T12:33:20.236Z,66.20
2018-06-24T12:35:25.105Z,66.20
2018-06-24T12:37:30.052Z,66.20
2018-06-24T12:39:34.795Z,66.10
2018-06-24T12:41:39.700Z,67.40
2018-06-24T12:43:44.629Z,68.30
2018-06-24T12:45:49.743Z,67.80
2018-06-24T12:47:54.599Z,68.40
2018-06-24T12:52:14.544Z,68.30
2018-06-24T12:54:19.405Z,68.30
2018-06-24T12:56:24.351Z,68.20
2018-06-24T12:58:29.847Z,68.80
2018-06-24T13:00:35.130Z,69.40
2018-06-24T13:02:39.463Z,69.60
2018-06-24T13:04:44.500Z,70.30
2018-06-24T13:06:49.383Z,70.50
2018-06-24T13:08:54.950Z,71.90
2018-06-24T13:11:00.161Z,70.60
2018-06-24T13:13:05.795Z,71.00
2018-06-24T13:15:11.392Z,70.80
2018-06-24T13:17:18.309Z,70.50
2018-06-24T13:19:23.415Z,70.80
2018-06-24T13:21:28.308Z,71.10
2018-06-24T13:23:34.473Z,71.30
2018-06-24T13:25:39.532Z,71.40
2018-06-24T13:27:44.345Z,71.80
2018-06-24T13:29:49.367Z,72.70
2018-06-24T13:31:54.484Z,73.50
2018-06-24T13:33:59.750Z,72.40
2018-06-24T13:36:04.949Z,72.80
2018-06-24T13:38:10.612Z,72.90
2018-06-24T13:40:15.948Z,73.70
2018-06-24T13:42:21.105Z,74.40
2018-06-24T13:44:26.161Z,75.80
2018-06-24T13:46:31.175Z,75.30
2018-06-24T13:48:56.003Z,75.10
2018-06-24T13:51:41.152Z,75.30
2018-06-24T13:53:52.868Z,75.80
2018-06-24T13:56:06.144Z,76.10
2018-06-24T13:58:35.017Z,76.80
2018-06-24T14:00:58.009Z,77.30
2018-06-24T14:03:42.425Z,78.60
2018-06-24T14:06:18.276Z,78.80
2018-06-24T14:08:35.165Z,78.00
2018-06-24T14:10:52.185Z,78.30
2018-06-24T14:13:25.641Z,79.70
2018-06-24T14:15:30.560Z,79.80
2018-06-24T14:17:41.709Z,78.60
2018-06-24T14:19:52.525Z,79.00
2018-06-24T14:21:59.799Z,78.60
2018-06-24T14:24:08.487Z,78.80
2018-06-24T14:26:22.561Z,79.50
2018-06-24T14:28:57.973Z,79.80
2018-06-24T14:31:31.506Z,79.80
2018-06-24T14:34:11.185Z,79.60
2018-06-24T14:36:38.563Z,80.00
2018-06-24T14:39:03.742Z,80.70
2018-06-24T14:41:23.158Z,81.20
2018-06-24T14:43:33.500Z,80.40
2018-06-24T14:45:41.026Z,80.70
2018-06-24T14:48:00.694Z,80.20
2018-06-24T14:50:09.646Z,81.00
2018-06-24T14:52:14.768Z,80.90
2018-06-24T14:56:21.497Z,81.60
2018-06-24T14:58:26.341Z,83.30
2018-06-24T15:00:31.263Z,82.80
2018-06-24T15:02:40.392Z,82.40
2018-06-24T15:04:45.219Z,83.10
2018-06-24T15:06:50.104Z,83.10
2018-06-24T15:08:55.216Z,83.80
2018-06-24T15:11:00.869Z,83.70
2018-06-24T15:13:10.339Z,84.60
2018-06-24T15:15:30.627Z,85.60
2018-06-24T15:17:49.221Z,85.60
2018-06-24T15:19:55.751Z,86.60
2018-06-24T15:22:25.076Z,87.10
2018-06-24T15:24:44.982Z,87.70
2018-06-24T15:27:00.408Z,88.20
2018-06-24T15:29:10.012Z,88.00
2018-06-24T15:31:18.609Z,88.80
2018-06-24T15:33:23.629Z,88.60
2018-06-24T15:36:01.208Z,88.70
2018-06-24T15:38:14.221Z,88.70
2018-06-24T15:40:35.128Z,87.90
2018-06-24T15:42:59.956Z,87.60
2018-06-24T15:45:07.452Z,86.80
2018-06-24T15:47:26.546Z,86.00
2018-06-24T15:49:56.060Z,85.60
2018-06-24T15:52:19.730Z,85.60
2018-06-24T15:54:39.779Z,86.20
2018-06-24T15:57:02.287Z,87.10
2018-06-24T15:59:18.132Z,87.70
2018-06-24T16:01:29.010Z,88.20
2018-06-24T16:03:48.572Z,88.70
2018-06-24T16:05:56.116Z,88.90
2018-06-24T16:08:14.012Z,89.60
2018-06-24T16:10:26.110Z,89.70
2018-06-24T16:12:48.655Z,90.00
2018-06-24T16:15:19.925Z,90.40
2018-06-24T16:17:28.332Z,90.70
2018-06-24T16:19:51.130Z,91.10
2018-06-24T16:22:14.508Z,91.90
2018-06-24T16:24:53.601Z,92.80
2018-06-24T16:27:03.451Z,93.40
2018-06-24T16:29:11.347Z,94.10
2018-06-24T16:31:31.401Z,94.40
2018-06-24T16:33:43.322Z,94.40
2018-06-24T16:35:49.573Z,93.90
2018-06-24T16:37:58.703Z,94.10
2018-06-24T16:40:18.989Z,94.20
2018-06-24T16:42:40.988Z,94.30
2018-06-24T16:45:04.728Z,94.20
2018-06-24T16:47:22.759Z,94.70
2018-06-24T16:49:45.856Z,94.40
2018-06-24T16:52:03.669Z,94.80
2018-06-24T16:54:35.746Z,95.10
2018-06-24T16:56:51.476Z,95.00
2018-06-24T16:59:24.942Z,95.00
2018-06-24T17:01:40.025Z,95.10
2018-06-24T17:04:23.805Z,94.90
2018-06-24T17:06:42.377Z,94.80
2018-06-24T17:08:52.550Z,94.80
2018-06-24T17:11:02.557Z,95.00
2018-06-24T17:13:24.734Z,95.10
2018-06-24T17:15:55.000Z,95.10
2018-06-24T17:18:28.584Z,95.10
2018-06-24T17:20:52.181Z,95.20
2018-06-24T17:23:08.270Z,95.00
2018-06-24T17:25:19.071Z,95.10
2018-06-24T17:28:02.707Z,95.30
2018-06-24T17:30:22.677Z,95.50
2018-06-24T17:32:36.599Z,95.40
2018-06-24T17:35:07.746Z,95.60
2018-06-24T17:37:45.029Z,95.60
2018-06-24T17:40:18.234Z,95.70
2018-06-24T17:42:52.433Z,95.70
2018-06-24T17:48:10.313Z,95.50
2018-06-24T17:50:32.091Z,95.70
2018-06-24T17:53:05.063Z,95.90
2018-06-24T17:55:34.884Z,95.80
2018-06-24T17:58:09.536Z,95.90
2018-06-24T18:00:28.862Z,95.70
2018-06-24T18:02:45.649Z,95.80
2018-06-24T18:04:57.918Z,96.30
2018-06-24T18:07:06.348Z,96.90
2018-06-24T18:09:29.636Z,96.70
2018-06-24T18:11:37.828Z,97.10
2018-06-24T18:14:04.640Z,97.60
2018-06-24T18:16:51.333Z,97.30
2018-06-24T18:19:08.913Z,97.40
2018-06-24T18:21:20.477Z,97.70
2018-06-24T18:23:32.420Z,98.10
2018-06-24T18:25:41.988Z,98.70
2018-06-24T18:28:01.246Z,98.70
2018-06-24T18:30:12.748Z,98.70
2018-06-24T18:32:25.878Z,98.50
2018-06-24T18:34:59.461Z,98.60
2018-06-24T18:37:12.585Z,98.60
2018-06-24T18:39:33.727Z,98.50
2018-06-24T18:44:57.177Z,98.20
2018-06-24T18:47:38.450Z,97.70
2018-06-24T18:50:06.022Z,97.50
2018-06-24T18:52:54.854Z,97.40
2018-06-24T19:03:48.312Z,97.70
2018-06-24T19:09:14.987Z,97.90
2018-06-24T19:11:38.217Z,97.90
2018-06-24T19:13:58.621Z,97.80
2018-06-24T19:16:31.611Z,97.50
2018-06-24T19:19:01.745Z,97.30
2018-06-24T19:21:31.297Z,97.40
2018-06-24T19:23:56.904Z,97.20
2018-06-24T19:26:31.669Z,97.10
2018-06-24T19:29:00.195Z,97.20
2018-06-24T19:31:27.406Z,97.60
2018-06-24T19:34:07.378Z,97.90
2018-06-24T19:36:28.707Z,98.10
2018-06-24T19:38:55.920Z,98.60
2018-06-24T19:41:22.539Z,99.40
2018-06-24T19:43:49.447Z,99.90
2018-06-24T19:46:12.833Z,99.90
2018-06-24T19:48:46.403Z,99.90
2018-06-24T19:51:16.721Z,99.90
2018-06-24T19:53:56.031Z,99.90
2018-06-24T19:56:38.427Z,99.90
2018-06-24T19:59:23.665Z,99.90
2018-06-24T20:02:03.093Z,99.90
2018-06-24T20:04:41.872Z,99.90
2018-06-24T20:07:19.048Z,99.90
2018-06-24T20:09:56.227Z,99.90
2018-06-24T20:12:32.607Z,99.90
2018-06-24T20:14:58.348Z,99.90
2018-06-24T20:17:34.017Z,99.90
2018-06-24T20:20:01.751Z,99.90
2018-06-24T20:22:25.742Z,99.90
2018-06-24T20:24:40.780Z,99.90
2018-06-24T20:26:57.500Z,99.90
2018-06-24T20:29:20.070Z,99.90
2018-06-24T20:31:38.616Z,99.90
2018-06-24T20:34:03.108Z,99.90
2018-06-24T20:36:24.122Z,99.90
2018-06-24T20:39:05.557Z,99.90
2018-06-24T20:41:15.649Z,99.90
2018-06-24T20:43:45.132Z,99.90
2018-06-24T20:46:00.770Z,99.90
2018-06-24T20:48:23.126Z,99.90
2018-06-24T20:50:37.559Z,99.90
2018-06-24T20:52:58.667Z,99.90
2018-06-24T20:55:19.451Z,99.90
2018-06-24T20:57:35.952Z,99.90
2018-06-24T21:00:00.114Z,99.90
2018-06-24T21:02:22.870Z,99.90
2018-06-24T21:07:34.245Z,99.90
2018-06-24T21:10:03.918Z,99.90
2018-06-24T21:12:23.648Z,99.90
2018-06-24T21:14:55.995Z,99.90
2018-06-24T21:17:23.272Z,99.90
2018-06-24T21:19:28.457Z,99.90
2018-06-24T21:21:33.700Z,99.90
2018-06-24T21:23:38.926Z,99.90
2018-06-24T21:25:44.125Z,99.90
2018-06-24T21:27:49.273Z,99.90
2018-06-24T21:29:57.197Z,99.90
2018-06-24T21:32:04.178Z,99.90
2018-06-24T21:34:11.722Z,99.90
2018-06-24T21:36:17.977Z,99.90
2018-06-24T21:38:24.149Z,99.90
2018-06-24T21:40:30.000Z,99.90
2018-06-24T21:42:35.334Z,99.90
2018-06-24T21:44:42.031Z,99.90
2018-06-24T21:46:48.711Z,99.90
2018-06-24T21:48:53.640Z,99.90
2018-06-24T21:51:00.430Z,99.90
2018-06-24T21:53:07.044Z,99.90
2018-06-24T21:55:14.600Z,99.90
2018-06-24T21:57:21.682Z,99.90
2018-06-24T21:59:28.513Z,99.90
2018-06-24T22:01:35.932Z,99.90
2018-06-24T22:03:42.521Z,99.90
2018-06-24T22:05:49.604Z,99.90
2018-06-24T22:07:56.705Z,99.90
2018-06-24T22:10:03.711Z,99.90
2018-06-24T22:12:10.432Z,99.90
2018-06-24T22:14:17.642Z,99.90
2018-06-24T22:16:24.756Z,99.90
2018-06-24T22:18:32.240Z,99.90
2018-06-24T22:20:39.382Z,99.90
2018-06-24T22:22:46.220Z,99.90
2018-06-24T22:24:53.240Z,99.90
2018-06-24T22:27:00.512Z,99.90
2018-06-24T22:29:07.752Z,99.90
2018-06-24T22:31:14.702Z,99.90
2018-06-24T22:33:22.034Z,99.90
2018-06-24T22:35:29.024Z,99.90
2018-06-24T22:37:36.189Z,99.90
2018-06-24T22:39:43.010Z,99.90
2018-06-24T22:41:49.855Z,99.90
2018-06-24T22:43:56.999Z,99.90
2018-06-24T22:46:04.164Z,99.90
2018-06-24T22:48:10.987Z,99.90
2018-06-24T22:50:18.137Z,99.90
2018-06-24T22:52:25.541Z,99.90
2018-06-24T22:54:32.946Z,99.90
2018-06-24T22:59:08.374Z,99.90
2018-06-24T23:01:15.588Z,99.90
2018-06-24T23:03:22.702Z,99.90
2018-06-24T23:05:30.025Z,99.90
2018-06-24T23:07:37.163Z,99.90
2018-06-24T23:09:42.515Z,99.90
2018-06-24T23:11:49.158Z,99.90
2018-06-24T23:13:56.128Z,99.90
2018-06-24T23:16:03.337Z,99.90
2018-06-24T23:18:09.900Z,99.90
2018-06-24T23:20:16.601Z,99.90
2018-06-24T23:22:23.632Z,99.90
2018-06-24T23:24:30.189Z,99.90
2018-06-24T23:26:37.461Z,99.90
2018-06-24T23:28:42.676Z,99.90
2018-06-24T23:30:47.831Z,99.90
2018-06-24T23:32:54.613Z,99.90
2018-06-24T23:35:01.695Z,99.90
2018-06-24T23:37:06.571Z,99.90
2018-06-24T23:39:11.450Z,99.90
2018-06-24T23:41:16.372Z,99.90
2018-06-24T23:43:21.349Z,99.90
2018-06-24T23:45:26.286Z,99.90
2018-06-24T23:47:31.229Z,99.90
2018-06-24T23:49:36.021Z,99.90
2018-06-24T23:51:40.919Z,99.90
2018-06-24T23:53:45.806Z,99.90
2018-06-24T23:55:50.704Z,99.90
2018-06-24T23:57:55.556Z,99.90
